Liguori, MO (63057)

00:43 CDT le 05 septembre 2015 (GMT -0500)
Olde Mill Estates | | Change Station
CLOSE
Current Station
Stations météorologiques personnelles
Location: Byrnes Mill, MO
Altitude: 568 ft
Stations météo à proximité

Alt. 568 ft 38.43 °N, 90.57 °W | Updated 10 seconds ago

Ciel dégagé
Ciel dégagé
71.8 ° F
Paraît 71.8 ° F
N
0.0
Vent Variable Vent de Nord
Gusts 0.0 mph

Aujourd'hui
Haut(e) -- | Bas -- ° F
--% Risque de précip.
Hier
Haut(e) -- | Bas -- ° F
Precip. -- pouce
6:34 AM 7:26 PM
Lune gibbeuse décroissante, 52% visible
Pression 30.00 pouce
Visibilité 10.0 Miles terrestres
Nuages Ciel dégagé
Point de rosée 69 ° F
Humidité 92%
Précipitations 0.00 pouce
Profondeur de la couche neigeuse Non disponible.
UV 0 sur 12
Pollen 11.10 sur 12
Qualité de l'air Non disponible.
Flu Activity Non disponible.
METAR KSUS 050454Z AUTO 00000KT 10SM CLR 22/22 A3003 RMK AO2 SLP159 T02220217
Pression 30.00 pouce
Visibilité 10.0 Miles terrestres
Nuages Ciel dégagé
Point de rosée 69 ° F
Humidité 92%
Précipitations 0.00 pouce
Profondeur de la couche neigeuse Non disponible.
UV 0 sur 12
Pollen 11.10 sur 12
Qualité de l'air Non disponible.
Flu Activity Non disponible.
METAR KSUS 050454Z AUTO 00000KT 10SM CLR 22/22 A3003 RMK AO2 SLP159 T02220217

10-Day Weather Forecast

×

Almanac

Astronomie

Sep. 05, 2015 Lever Coucher
Temps réel
Crépuscule civil
Crépuscule nautique
Crépuscule astronomique
Lune
Durée de lumière visible
Longueur du jour
Tomorrow will be .
, % of the Moon is Illuminated

Extrêmes aujourd'hui

State Highs State Lows

Community

WunderPhotos

Upload Photos

1,852,428 Photos téléchargées !

WunderBlogs® & News

Nearby

Qualité de l'air

  Qualité de l'air Indice de la qualité de l'air Polluant
Not available.

Épaisseur de neige

Station Depth Altitude

Activité sismique

Ville Distance Mag. Time & Date
Minimum magnitude displayed is 2.5.

Températures des eaux côtières

Lieu Température

Stations

Stations météo à proximité

Emplacement de la station Température Refroidissement éolien Point de rosée Humidité Vent Precip. Alt. Mise à jour Type